Kyme — XUPY9 — position and weather

sailwx.info

Track history (hours):
 
Tides and Currents Weather Stations Pressure Air Temp Water Temp Dewpoint Dewpoint Depression Visibility Wind Speed Wind Dir Waves Ship Positions

Kyme

Last reported at 2014-Oct-24 14:33 UTC. Time now 2014-Oct-24 14:42 UTC.
Position N 40°51' E 029°11'.

Length 114 m; draft 3.6 m.

Type: Cargo ship. MMSI: 514283000.

Date/timePositionNaut miles runAvg speedWind from/ knotsBaromVisibWave heightAir tempDewpointWater temp
2014-Oct-24 14:33N 40°51' E 029°11'1 0.8
2014-Oct-24 13:33N 40°52' E 029°11'0 0.0
2014-Oct-24 12:33N 40°52' E 029°11'0 0.0
2014-Oct-24 11:32N 40°52' E 029°11'4 3.5
2014-Oct-24 10:32N 40°50' E 029°07'4 4.4
2014-Oct-24 09:33N 40°50' E 029°02'4 3.9
2014-Oct-24 08:33N 40°52' E 028°57'5 4.9
2014-Oct-24 07:30N 40°57' E 028°55'1 1.4
2014-Oct-24 06:30N 40°58' E 028°55'0 0.0
2014-Oct-24 05:30N 40°58' E 028°55'0 0.0
2014-Oct-24 03:29N 40°58' E 028°55'0 0.0
2014-Oct-24 01:29N 40°58' E 028°55'0 0.0
2014-Oct-24 00:23N 40°58' E 028°55'4 4.3
2014-Oct-23 23:31N 41°00' E 028°60'  
2014-Oct-21 03:07N 46°36' E 031°30'5 6.4
2014-Oct-21 02:16N 46°35' E 031°38'5 7.0
2014-Oct-21 01:33N 46°36' E 031°45'7 6.8
2014-Oct-21 00:33N 46°34' E 031°55'7 6.8
2014-Oct-20 23:33N 46°32' E 032°04'6 6.0
2014-Oct-20 22:33N 46°33' E 032°13'7 7.1
2014-Oct-20 21:33N 46°33' E 032°23'  
2014-Oct-14 17:12N 46°37' E 032°36'0 0.0
2014-Oct-14 16:33N 46°37' E 032°36'0 0.0
2014-Oct-14 15:30N 46°37' E 032°36'  
Track history (hours):
 
Tides and Currents Weather Stations Pressure Air Temp Water Temp Dewpoint Dewpoint Depression Visibility Wind Speed Wind Dir Waves Ship Positions

Kyme

Last reported at 2014-Oct-24 14:33 UTC. Time now 2014-Oct-24 14:42 UTC.
Position N 40°51' E 029°11'.

Length 114 m; draft 3.6 m.

Type: Cargo ship. MMSI: 514283000.

Date/timePositionNaut miles runAvg speedWind from/ knotsBaromVisibWave heightAir tempDewpointWater temp
2014-Oct-24 14:33N 40°51' E 029°11'1 0.8
2014-Oct-24 13:33N 40°52' E 029°11'0 0.0
2014-Oct-24 12:33N 40°52' E 029°11'0 0.0
2014-Oct-24 11:32N 40°52' E 029°11'4 3.5
2014-Oct-24 10:32N 40°50' E 029°07'4 4.4
2014-Oct-24 09:33N 40°50' E 029°02'4 3.9
2014-Oct-24 08:33N 40°52' E 028°57'5 4.9
2014-Oct-24 07:30N 40°57' E 028°55'1 1.4
2014-Oct-24 06:30N 40°58' E 028°55'0 0.0
2014-Oct-24 05:30N 40°58' E 028°55'0 0.0
2014-Oct-24 03:29N 40°58' E 028°55'0 0.0
2014-Oct-24 01:29N 40°58' E 028°55'0 0.0
2014-Oct-24 00:23N 40°58' E 028°55'4 4.3
2014-Oct-23 23:31N 41°00' E 028°60'  
2014-Oct-21 03:07N 46°36' E 031°30'5 6.4
2014-Oct-21 02:16N 46°35' E 031°38'5 7.0
2014-Oct-21 01:33N 46°36' E 031°45'7 6.8
2014-Oct-21 00:33N 46°34' E 031°55'7 6.8
2014-Oct-20 23:33N 46°32' E 032°04'6 6.0
2014-Oct-20 22:33N 46°33' E 032°13'7 7.1
2014-Oct-20 21:33N 46°33' E 032°23'  
2014-Oct-14 17:12N 46°37' E 032°36'0 0.0
2014-Oct-14 16:33N 46°37' E 032°36'0 0.0
2014-Oct-14 15:30N 46°37' E 032°36'  

Dump ship's entire track history